新潟 の空港の天気 - METARとTAF

新潟空港 ( RJSN / KIJ ) - 新潟県新潟市
飛行場実況気象(Metar)
観測時間04/25 21:00 JST (04/25 12:00 UTC)
風向・風速南南東 2m/s
視程10km以上
天気現象
少しの雲 雲底高度 910m
全天の4割程度の雲 雲底高度 3050m
気温18℃
湿度49%
気圧1020hPa
METARRJSN 251200Z 15004KT 9999 FEW030 SCT100 BKN/// 18/07 Q1020
過去の天気等 Google飛行場航空写真 Wunderground天気予報

過去48時間のMETAR

飛行場予報(TAF)
発表時間: 4/25 20:05 JST (4/25 11:05 UTC)
予報対象時間: 25日21時 JST ~ 27日3時 JST
風向・風速南 3m/s
視程8,000m
少しの雲 雲底高度 610m
全天の8割程度の雲 雲底高度 1,220m
26日9時 JST ~ 26日12時 JST に徐々に
風向・風速西南西 6m/s
26日9時 JST ~ 26日18時 JST に一時的に
視程3,000m
天気現象しゅう雨 もや
少しの雲 雲底高度 150m
全天の8割程度の雲 雲底高度 240m
26日18時 JST ~ 27日3時 JST に一時的に
視程4,000m
天気現象弱いしゅう雨 もや
少しの雲 雲底高度 150m
全天の8割程度の雲 雲底高度 240m
26日21時 JST ~ 26日24時 JST に徐々に
風向・風速南 5m/s
TAF RJSN 251105Z 2512/2618 17006KT 8000 FEW020 BKN040
BECMG 2600/2603 24012KT
TEMPO 2600/2609 3000 SHRA BR FEW005 BKN008
TEMPO 2609/2618 4000 -SHRA BR FEW005 BKN008
BECMG 2612/2615 18010KT
日本の空港のMETAR・TAFへのリンク

RJTT 東京国際空港
RJAA 新東京国際空港
RJBB 関西国際空港
RJOO 大阪空港
RJGG 中部国際空港
RJCC 新千歳空港
RJFF 福岡空港
ROAH 那覇空港


RJEC 旭川空港
RJCH 函館空港
RJCK 釧路空港
RJCM 女満別空港
RJCB 帯広空港
RJSA 青森空港
RJSS 仙台空港
RJSK 秋田空港
RJSF 福島空港
RJAH 茨城空港
RJSN 新潟空港
RJNT 富山空港
RJNK 小松飛行場
RJNS 静岡空港
RJOH 美保飛行場
RJOC 出雲空港
RJOB 岡山空港
RJOA 広島空港
RJOI 岩国飛行場
RJOT 高松空港
RJOM 松山空港
RJOK 高知空港
RJFR 北九州空港
RJFT 熊本空港
RJFU 長崎空港
RJFS 佐賀空港
RJFO 大分空港
RJFM 宮崎空港
RJFK 鹿児島空港
ROIG 石垣島空港
RJTY 横田飛行場
ROTM 普天間飛行場
RODN 嘉手納飛行場